Terminal Aerodrome Forecast
Issued by NWS Brownsville, TX

Home | Current Version | Previous Version | Text Only | Print | Product List | Glossary On
Versions: 1 2 3 4 5 6 7 8 9 10 11 12 13 14 15 16 17
000
FTUS44 KBRO 212326
TAFHRL
TAF
KHRL 212326Z 2200/2224 15020G25KT P6SM BKN040
     FM220200 16008KT P6SM OVC015
     FM221200 35008KT P6SM OVC020
     FM221700 03012G17KT P6SM BKN030=

USA.gov is the U.S. government's official web portal to all federal, state and local government web resources and services.